Accueil
METAR-TAF:

METAR-TAF

Aéroports :

Aéroport de Saint-Sébastien

Saint-Sébastien, Espagne

latitude: 43-21N, longitude: 001-48W, altitude: 5 m

Observation

Le bulletin a été fait il y a 11 minutes, à 23:30 UTC
Vent 2 kt de sud
Température 16°C
Humidité 82%
Pression 1019 hPa
Visibilité: 9000 m

METAR: LESO 232330Z AUTO 19002KT 9000 NCD 16/13 Q1019

Heure: 01:41 (23:41 UTC)

Prévision

Le bulletin a été fait il y a 41 minutes, à 23:00 UTC
Prévision valable du 24 à 00 UTC au 24 à 24 UTC
Vent 4 kt de direction variable
Visibilité 10 km ou plus
pas de nuages en-dessous de 1500 mètres et pas de cumulonimbus.
Temporairement
du 24 à 12 UTC au 24 à 18 UTC
Vent 10 kt de nord

TAF: LESO 232300Z 2400/2424 VRB04KT CAVOK TX24/2415Z TN13/2406Z TEMPO 2412/2418 01010KT

Observations et prévisions météorologiques de plus de 4000 aéroports (messages METAR et TAF).

Les stations disponibles sont représentées par des disques jaunes et rouges sur la carte.

Passer la souris dessus pour voir le nom de la station.

Cliquer dessus pour voir les observations et prévisions météorologiques.

Pour changer de carte: cliquez sur les boutons verts avec une croix noire pour zoomer, sur le bouton vert avec un tiret pour effectuer un zoom arrière, ou sur les flèches vertes pour les cartes adjacentes.


METAR-TAF: